Aibonito, Puerto Rico
Current Conditions -  °F | °C
As of 11:50 PM on Tuesday 25 Nov 2014 (Local Time) from TJPS Reporting Station
Few Clouds Few Clouds  
Wind Chill: 75°   Ceiling: Unl
Heat Index: 75°   Visibility: 10mi
Dew Point: 70°   Wind: 6mph
Humidity: 83%   Direction: 20°NNE
Pressure: 29.98"   Gusts: NA
Location:  18.14°N, 66.27°W
Report Text: TJPS 260350Z 02005KT 10SM FEW030 24/21 A2998
Loading
Personal Weather Stations






























Interactive Weather Map New forecast layout! Learn more

10-Day Weather Forecast

Advertisements
Track Severe Weather on mobile